Time;durP1;ratioP1;P1;durP2;ratioP2;P2;SDS_P1;SDS_P2;PMS_P1;PMS_P2;Temp;Humidity;BMP_temperature;BMP_pressure;BME280_temperature;BME280_humidity;BME280_pressure;Samples;Min_cycle;Max_cycle;Signal;HPM_P1;HPM_P2
2022/06/16 00:00:15;;;;;;;6.82;5.57;;;13.20;99.90;;;;;;4788784;29;20054;-69
2022/06/16 00:02:43;;;;;;;6.15;5.50;;;13.20;99.90;;;;;;4789978;29;20055;-67
2022/06/16 00:05:12;;;;;;;7.63;6.22;;;13.10;99.90;;;;;;4805209;29;20058;-69
2022/06/16 00:07:39;;;;;;;9.45;6.05;;;13.10;99.90;;;;;;4788545;29;20050;-69
2022/06/16 00:10:06;;;;;;;7.15;6.20;;;13.10;99.90;;;;;;4790450;29;20055;-69
2022/06/16 00:12:31;;;;;;;7.97;6.22;;;13.00;99.90;;;;;;4790419;29;20395;-69
2022/06/16 00:14:58;;;;;;;8.70;6.43;;;13.10;99.90;;;;;;4806362;29;20046;-67
2022/06/16 00:17:23;;;;;;;7.00;6.28;;;13.10;99.90;;;;;;4789072;29;20134;-68
2022/06/16 00:19:49;;;;;;;6.60;5.35;;;13.00;99.90;;;;;;4790261;29;20134;-69
2022/06/16 00:22:15;;;;;;;8.07;6.28;;;13.00;99.90;;;;;;4805899;29;20138;-69
2022/06/16 00:24:40;;;;;;;8.57;6.03;;;13.00;99.90;;;;;;4789974;29;20053;-67
2022/06/16 00:27:07;;;;;;;7.80;6.43;;;13.00;99.90;;;;;;4789517;29;20077;-68
2022/06/16 00:29:33;;;;;;;8.48;6.35;;;13.00;99.90;;;;;;4788374;29;20099;-68
2022/06/16 00:31:59;;;;;;;9.88;7.05;;;12.90;99.90;;;;;;4773442;29;20161;-67
2022/06/16 00:34:25;;;;;;;10.57;6.80;;;12.90;99.90;;;;;;4805339;29;20212;-69
2022/06/16 00:36:52;;;;;;;11.73;6.85;;;12.90;99.90;;;;;;4806712;29;20065;-68
2022/06/16 00:39:17;;;;;;;9.70;6.65;;;12.80;99.90;;;;;;4790034;29;20061;-69
2022/06/16 00:41:43;;;;;;;12.77;7.15;;;12.80;99.90;;;;;;4788938;29;20059;-67
2022/06/16 00:44:40;;;;;;;8.43;6.90;;;12.80;99.90;;;;;;4805756;29;20386;-67
2022/06/16 00:47:05;;;;;;;8.18;6.15;;;12.80;99.90;;;;;;4789743;29;20050;-67
2022/06/16 00:49:33;;;;;;;8.10;5.93;;;12.70;99.90;;;;;;4805479;29;20488;-68
2022/06/16 00:52:10;;;;;;;8.60;6.32;;;12.70;99.90;;;;;;4788204;29;20054;-67
2022/06/16 00:54:46;;;;;;;6.70;5.97;;;12.70;99.90;;;;;;4805524;29;20081;-69
2022/06/16 00:57:20;;;;;;;8.77;5.85;;;12.70;99.90;;;;;;4772733;29;20051;-67
2022/06/16 00:59:45;;;;;;;7.28;6.10;;;12.60;99.90;;;;;;4805050;29;20066;-67
2022/06/16 01:02:11;;;;;;;8.70;6.25;;;12.60;99.90;;;;;;4803668;29;20059;-66
2022/06/16 01:04:53;;;;;;;6.32;5.70;;;12.60;99.90;;;;;;4806359;29;20491;-68
2022/06/16 01:07:25;;;;;;;9.48;5.90;;;12.60;99.90;;;;;;4804991;29;20393;-67
2022/06/16 01:09:52;;;;;;;7.95;5.88;;;12.50;99.90;;;;;;4787907;29;20066;-68
2022/06/16 01:15:45;;;;;;;8.80;5.80;;;12.50;99.90;;;;;;4789660;29;20344;-68
2022/06/16 01:18:48;;;;;;;5.82;5.22;;;12.40;99.90;;;;;;4789422;29;20055;-67
2022/06/16 01:21:21;;;;;;;6.55;5.45;;;12.40;99.90;;;;;;4804175;29;20361;-69
2022/06/16 01:24:11;;;;;;;8.73;6.35;;;12.30;99.90;;;;;;4775010;29;20444;-67
2022/06/16 01:26:46;;;;;;;8.85;5.95;;;12.30;99.90;;;;;;4788865;29;20073;-67
2022/06/16 01:29:34;;;;;;;7.55;6.22;;;12.40;99.90;;;;;;4805849;29;20066;-67
2022/06/16 01:32:40;;;;;;;8.23;6.45;;;12.30;99.90;;;;;;4787521;29;20058;-67
2022/06/16 01:35:16;;;;;;;7.75;6.57;;;12.30;99.90;;;;;;4788550;29;20135;-69
2022/06/16 01:37:52;;;;;;;7.78;6.20;;;12.30;99.90;;;;;;4805333;29;20051;-68
2022/06/16 01:40:30;;;;;;;9.25;6.55;;;12.30;99.90;;;;;;4772108;30;20062;-68
2022/06/16 01:43:09;;;;;;;8.98;6.35;;;12.30;99.90;;;;;;4799649;29;20442;-68
2022/06/16 01:45:54;;;;;;;6.93;5.82;;;12.30;99.90;;;;;;4789556;29;20066;-69
2022/06/16 01:48:23;;;;;;;6.40;5.65;;;12.30;99.90;;;;;;4773497;29;20047;-68
2022/06/16 01:50:59;;;;;;;8.20;5.82;;;12.40;99.90;;;;;;4788708;29;20134;-69
2022/06/16 01:53:51;;;;;;;9.23;6.80;;;12.30;99.90;;;;;;4773992;29;20055;-69
2022/06/16 01:56:25;;;;;;;8.80;6.38;;;12.20;99.90;;;;;;4773562;29;20045;-67
2022/06/16 01:59:02;;;;;;;7.82;5.93;;;12.30;99.90;;;;;;4787344;30;20388;-68
2022/06/16 02:01:38;;;;;;;6.95;5.93;;;12.30;99.90;;;;;;4762395;29;20159;-68
2022/06/16 02:04:12;;;;;;;8.52;5.97;;;12.30;99.90;;;;;;4805429;29;20057;-69
2022/06/16 02:06:42;;;;;;;8.43;6.35;;;12.30;99.90;;;;;;4773396;29;20039;-69
2022/06/16 02:09:14;;;;;;;8.73;6.75;;;12.30;99.90;;;;;;4788125;29;20058;-68
2022/06/16 02:11:42;;;;;;;;;;;12.30;99.90;;;;;;4777823;29;20055;-68
2022/06/16 02:14:23;;;;;;;7.30;6.30;;;12.30;99.90;;;;;;4792221;29;20001;-70
2022/06/16 02:16:49;;;;;;;8.60;5.68;;;12.30;99.90;;;;;;4791155;29;20062;-67
2022/06/16 02:19:19;;;;;;;7.57;5.85;;;12.30;99.90;;;;;;4798578;29;20051;-68
2022/06/16 02:21:50;;;;;;;7.97;6.00;;;12.30;99.90;;;;;;4807959;29;20055;-68
2022/06/16 02:24:19;;;;;;;7.28;5.97;;;12.30;99.90;;;;;;4792380;29;20484;-68
2022/06/16 02:26:45;;;;;;;11.57;6.18;;;12.30;99.90;;;;;;4808517;29;20086;-69
2022/06/16 02:29:37;;;;;;;8.32;5.75;;;12.20;99.90;;;;;;4808490;29;20145;-68
2022/06/16 02:32:37;;;;;;;9.75;6.32;;;12.30;99.90;;;;;;4776644;29;20062;-68
2022/06/16 02:35:36;;;;;;;9.27;6.85;;;12.20;99.90;;;;;;4807451;29;20050;-68
2022/06/16 02:38:20;;;;;;;8.45;6.03;;;12.20;99.90;;;;;;4804200;29;20127;-68
2022/06/16 02:41:10;;;;;;;7.03;6.25;;;12.30;99.90;;;;;;4791136;29;20583;-67
2022/06/16 02:44:00;;;;;;;7.18;6.15;;;12.20;99.90;;;;;;4807539;29;20055;-69
2022/06/16 02:46:32;;;;;;;8.32;5.40;;;12.20;99.90;;;;;;4791345;29;20054;-70
2022/06/16 02:49:08;;;;;;;9.70;6.13;;;12.20;99.90;;;;;;4775232;29;20043;-67
2022/06/16 02:51:41;;;;;;;8.18;6.07;;;12.20;99.90;;;;;;4806432;29;20162;-69
2022/06/16 02:54:41;;;;;;;12.50;6.07;;;12.20;99.90;;;;;;4791747;29;20362;-68
2022/06/16 02:57:13;;;;;;;8.27;6.03;;;12.20;99.90;;;;;;4789087;29;20062;-68
2022/06/16 02:59:45;;;;;;;10.65;6.07;;;12.20;99.90;;;;;;4776225;29;20461;-69
2022/06/16 03:02:17;;;;;;;11.13;5.93;;;12.20;99.90;;;;;;4789183;29;20484;-69
2022/06/16 03:04:56;;;;;;;9.85;5.97;;;12.20;99.90;;;;;;4791391;29;20054;-70
2022/06/16 03:07:24;;;;;;;7.05;5.38;;;12.20;99.90;;;;;;4807637;29;20085;-68
2022/06/16 03:09:49;;;;;;;7.65;5.78;;;12.20;99.90;;;;;;4790927;29;20050;-69
2022/06/16 03:12:15;;;;;;;9.95;6.30;;;12.30;99.90;;;;;;4806423;29;20140;-69
2022/06/16 03:14:43;;;;;;;5.35;4.85;;;12.30;99.90;;;;;;4807639;29;20081;-69
2022/06/16 03:17:10;;;;;;;8.80;6.00;;;12.30;99.90;;;;;;4790768;29;20103;-69
2022/06/16 03:19:35;;;;;;;8.27;5.60;;;12.30;99.90;;;;;;4806660;29;20051;-68
2022/06/16 03:22:03;;;;;;;7.57;5.85;;;12.30;99.90;;;;;;4789887;29;20055;-70
2022/06/16 03:24:28;;;;;;;7.57;5.53;;;12.20;99.90;;;;;;4807400;29;20054;-69
2022/06/16 03:26:54;;;;;;;6.85;5.57;;;12.20;99.90;;;;;;4790553;29;20519;-69
2022/06/16 03:29:19;;;;;;;9.90;6.00;;;12.10;99.90;;;;;;4791463;29;20058;-69
2022/06/16 03:31:45;;;;;;;6.22;5.63;;;12.20;99.90;;;;;;4790687;29;20487;-70
2022/06/16 03:34:11;;;;;;;7.32;5.40;;;12.20;99.90;;;;;;4790625;29;20046;-68
2022/06/16 03:36:37;;;;;;;6.97;5.35;;;12.20;99.90;;;;;;4790731;29;20096;-68
2022/06/16 03:39:04;;;;;;;8.27;5.65;;;12.10;99.90;;;;;;4788956;29;20042;-68
2022/06/16 03:41:31;;;;;;;6.88;5.60;;;12.10;99.90;;;;;;4790586;29;20397;-67
2022/06/16 03:43:57;;;;;;;6.60;5.55;;;12.10;99.90;;;;;;4790773;29;20046;-70
2022/06/16 03:46:23;;;;;;;9.50;5.82;;;12.00;99.90;;;;;;4806318;29;20133;-67
2022/06/16 03:48:48;;;;;;;11.20;6.22;;;12.00;99.90;;;;;;4775708;29;20126;-70
2022/06/16 03:51:14;;;;;;;9.30;5.40;;;11.90;99.90;;;;;;4790742;29;20076;-69
2022/06/16 03:53:41;;;;;;;9.48;5.43;;;11.90;99.90;;;;;;4806201;29;20047;-68
2022/06/16 03:56:07;;;;;;;7.78;5.72;;;11.90;99.90;;;;;;4790624;29;20499;-70
2022/06/16 03:58:34;;;;;;;8.73;5.32;;;11.80;99.90;;;;;;4806723;29;20417;-69
2022/06/16 04:00:59;;;;;;;11.15;5.60;;;11.70;99.90;;;;;;4806451;29;20062;-68
2022/06/16 04:06:11;;;;;;;7.38;5.15;;;11.60;99.90;;;;;;4772107;30;20051;-70
2022/06/16 04:08:38;;;;;;;9.32;5.43;;;11.60;99.90;;;;;;4782863;29;20122;-69
2022/06/16 04:11:26;;;;;;;7.32;5.05;;;11.60;99.90;;;;;;4790394;29;20059;-70
2022/06/16 04:13:49;;;;;;;7.97;5.50;;;11.70;99.90;;;;;;4789974;29;20058;-68
2022/06/16 04:16:15;;;;;;;8.88;5.50;;;11.80;99.90;;;;;;4789894;29;20054;-69
2022/06/16 04:18:41;;;;;;;8.05;5.13;;;11.90;99.90;;;;;;4790138;29;20062;-69
2022/06/16 04:21:06;;;;;;;7.20;5.00;;;12.00;99.90;;;;;;4789117;29;20054;-68
2022/06/16 04:23:33;;;;;;;8.05;5.63;;;12.10;99.90;;;;;;4788066;29;20059;-70
2022/06/16 04:25:58;;;;;;;7.13;4.75;;;12.20;99.90;;;;;;4789959;29;20108;-68
2022/06/16 04:28:24;;;;;;;7.47;5.22;;;12.30;99.90;;;;;;4789591;29;20457;-68
2022/06/16 04:30:50;;;;;;;8.75;5.50;;;12.50;99.90;;;;;;4789692;29;20106;-69
2022/06/16 04:33:15;;;;;;;6.65;4.85;;;12.60;99.90;;;;;;4805477;29;20122;-69
2022/06/16 04:35:41;;;;;;;7.13;5.32;;;12.70;99.90;;;;;;4789547;29;20054;-68
2022/06/16 04:38:07;;;;;;;9.68;5.45;;;12.90;99.90;;;;;;4789468;29;20438;-69
2022/06/16 04:40:33;;;;;;;9.38;5.75;;;13.00;99.90;;;;;;4789644;29;20126;-69
2022/06/16 04:42:58;;;;;;;8.90;5.68;;;13.20;99.90;;;;;;4790060;29;20058;-68
2022/06/16 04:45:24;;;;;;;8.43;5.20;;;13.20;99.90;;;;;;4789073;29;20042;-68
2022/06/16 04:47:50;;;;;;;8.65;5.15;;;13.40;99.90;;;;;;4787905;29;20062;-69
2022/06/16 04:50:18;;;;;;;9.05;5.65;;;13.40;99.90;;;;;;4789239;29;20108;-68
2022/06/16 04:52:44;;;;;;;6.63;5.35;;;13.60;99.90;;;;;;4789597;29;20054;-68
2022/06/16 04:55:10;;;;;;;6.70;4.68;;;13.70;99.90;;;;;;4789436;29;20069;-68
2022/06/16 04:57:36;;;;;;;7.55;4.75;;;13.80;99.90;;;;;;4789300;29;20121;-69
2022/06/16 05:00:03;;;;;;;6.25;4.70;;;13.90;99.90;;;;;;4806093;29;20515;-69
2022/06/16 05:02:28;;;;;;;9.18;5.05;;;14.00;99.90;;;;;;4786609;29;20452;-69
2022/06/16 05:04:54;;;;;;;7.20;4.50;;;14.10;99.90;;;;;;4789019;29;20134;-68
2022/06/16 05:07:19;;;;;;;6.95;4.60;;;14.20;99.90;;;;;;4803140;29;20042;-69
2022/06/16 05:09:45;;;;;;;5.97;4.65;;;14.30;99.90;;;;;;4785792;29;20063;-70
2022/06/16 05:12:11;;;;;;;8.27;5.13;;;14.40;99.90;;;;;;4788120;29;20047;-68
2022/06/16 05:14:36;;;;;;;6.90;4.90;;;14.40;99.90;;;;;;4806216;29;20050;-68
2022/06/16 05:17:02;;;;;;;8.48;5.47;;;14.50;99.90;;;;;;4803995;29;20051;-68
2022/06/16 05:19:30;;;;;;;8.10;5.10;;;14.50;99.90;;;;;;4803547;29;20047;-68
2022/06/16 05:21:57;;;;;;;6.00;5.45;;;14.50;99.90;;;;;;4789104;29;20079;-68
2022/06/16 05:24:23;;;;;;;7.00;5.15;;;14.60;99.90;;;;;;4772590;29;20134;-70
2022/06/16 05:26:48;;;;;;;8.73;5.72;;;14.70;99.90;;;;;;4789166;29;20187;-68
2022/06/16 05:29:14;;;;;;;8.10;5.78;;;14.70;99.90;;;;;;4793806;29;20050;-70
2022/06/16 05:31:39;;;;;;;7.78;5.90;;;14.80;99.90;;;;;;4796501;29;20051;-70
2022/06/16 05:34:05;;;;;;;7.28;5.68;;;14.90;99.90;;;;;;4800273;29;20047;-68
2022/06/16 05:36:31;;;;;;;7.05;5.05;;;15.00;99.90;;;;;;4782726;29;20211;-68
2022/06/16 05:38:58;;;;;;;9.43;5.78;;;15.00;99.90;;;;;;4782785;30;20051;-70
2022/06/16 05:41:23;;;;;;;9.02;6.18;;;15.10;99.90;;;;;;4797042;29;20058;-70
2022/06/16 05:43:49;;;;;;;11.30;6.68;;;15.20;99.90;;;;;;4787397;29;20058;-69
2022/06/16 05:46:26;;;;;;;10.32;6.25;;;15.20;99.90;;;;;;4782283;29;20069;-69
2022/06/16 05:48:54;;;;;;;8.10;6.53;;;15.30;99.90;;;;;;4799608;29;20477;-69
2022/06/16 05:51:22;;;;;;;8.48;6.70;;;15.70;99.90;;;;;;4788383;29;20211;-69
2022/06/16 05:53:48;;;;;;;8.10;6.72;;;16.40;99.90;;;;;;4799971;29;20132;-68
2022/06/16 05:56:14;;;;;;;9.10;6.15;;;16.90;99.90;;;;;;4786246;29;20083;-68
2022/06/16 05:58:41;;;;;;;11.13;6.30;;;17.00;99.90;;;;;;4807146;29;20063;-70
2022/06/16 06:01:10;;;;;;;9.63;6.22;;;17.10;99.90;;;;;;4784938;29;20054;-69
2022/06/16 06:03:38;;;;;;;10.30;5.90;;;17.20;99.90;;;;;;4808666;29;20418;-69
2022/06/16 06:06:04;;;;;;;10.98;6.97;;;17.20;99.90;;;;;;4808585;29;20062;-69
2022/06/16 06:16:46;;;;;;;8.52;5.55;;;19.70;99.90;;;;;;4791011;29;20083;-68
2022/06/16 06:19:23;;;;;;;8.07;4.38;;;20.50;99.90;;;;;;4808634;29;20090;-70
2022/06/16 06:22:05;;;;;;;6.07;4.45;;;21.00;99.90;;;;;;4807137;29;21853;-69
2022/06/16 06:24:42;;;;;;;6.40;4.28;;;21.50;99.90;;;;;;4787805;29;20042;-70
2022/06/16 06:27:36;;;;;;;7.45;4.15;;;22.10;99.90;;;;;;4792230;29;20098;-69
2022/06/16 06:30:26;;;;;;;6.40;4.13;;;22.50;99.90;;;;;;4806090;29;20054;-69
2022/06/16 06:32:53;;;;;;;5.13;3.53;;;22.70;99.90;;;;;;4790781;29;20082;-68
2022/06/16 06:35:19;;;;;;;5.25;3.70;;;22.90;99.90;;;;;;4791956;29;20059;-68
2022/06/16 06:37:45;;;;;;;7.93;4.15;;;22.80;99.90;;;;;;4789407;29;20058;-70
2022/06/16 06:40:33;;;;;;;6.05;4.28;;;22.30;99.90;;;;;;4790904;29;20066;-67
2022/06/16 06:42:59;;;;;;;6.88;3.28;;;21.60;99.90;;;;;;4807545;29;20062;-69
2022/06/16 06:45:25;;;;;;;4.60;2.88;;;21.00;99.90;;;;;;4790839;29;20046;-66
2022/06/16 06:47:51;;;;;;;7.00;3.33;;;20.40;99.90;;;;;;4791661;29;20050;-68
2022/06/16 06:50:21;;;;;;;4.90;3.47;;;20.00;99.90;;;;;;4791648;29;20123;-68
2022/06/16 06:52:46;;;;;;;7.18;3.50;;;19.60;99.90;;;;;;4807878;29;20051;-68
2022/06/16 06:55:12;;;;;;;6.72;2.97;;;19.30;99.90;;;;;;4775427;29;20051;-68
2022/06/16 06:57:38;;;;;;;3.58;2.30;;;19.10;99.90;;;;;;4791070;29;20061;-68
2022/06/16 07:00:04;;;;;;;4.53;2.05;;;19.00;99.90;;;;;;4808500;29;20043;-69
2022/06/16 07:02:30;;;;;;;3.33;2.03;;;18.90;99.90;;;;;;4806865;29;20047;-69
2022/06/16 07:04:55;;;;;;;5.10;2.03;;;18.80;99.90;;;;;;4791619;29;20437;-68
2022/06/16 07:07:23;;;;;;;2.42;1.83;;;18.60;99.90;;;;;;4805222;29;20103;-66
2022/06/16 07:09:49;;;;;;;3.88;2.00;;;18.80;99.90;;;;;;4808397;29;20133;-68
2022/06/16 07:12:15;;;;;;;3.63;2.05;;;18.90;99.90;;;;;;4807321;29;20502;-69
2022/06/16 07:14:43;;;;;;;6.25;2.30;;;19.00;99.90;;;;;;4790939;29;20568;-67
2022/06/16 07:17:08;;;;;;;2.65;1.70;;;19.00;99.90;;;;;;4807530;29;20054;-67
2022/06/16 07:19:35;;;;;;;3.15;1.45;;;19.10;99.90;;;;;;4807530;29;20062;-66
2022/06/16 07:22:02;;;;;;;1.88;1.13;;;19.20;99.90;;;;;;4807314;29;20489;-65
2022/06/16 07:24:27;;;;;;;1.80;1.00;;;19.20;99.90;;;;;;4791227;29;20059;-67
2022/06/16 07:26:53;;;;;;;2.63;1.15;;;19.20;99.90;;;;;;4807081;29;20054;-66
2022/06/16 07:29:19;;;;;;;2.38;1.00;;;19.30;99.90;;;;;;4807270;29;20047;-67
2022/06/16 07:31:44;;;;;;;2.97;1.05;;;19.20;99.90;;;;;;4790343;29;20480;-66
2022/06/16 07:34:10;;;;;;;2.17;1.10;;;19.30;99.90;;;;;;4790816;29;20050;-67
2022/06/16 07:36:35;;;;;;;4.78;1.20;;;19.40;99.90;;;;;;4790667;29;20055;-67
2022/06/16 07:39:02;;;;;;;3.03;1.25;;;19.40;99.90;;;;;;4791347;29;20063;-68
2022/06/16 07:41:31;;;;;;;3.25;1.67;;;19.40;99.90;;;;;;4775789;29;20058;-67
2022/06/16 07:43:57;;;;;;;4.45;1.25;;;19.50;99.90;;;;;;4791354;29;20050;-66
2022/06/16 07:46:23;;;;;;;2.45;1.23;;;19.60;98.30;;;;;;4805407;29;20055;-66
2022/06/16 07:48:51;;;;;;;2.75;1.60;;;19.60;98.30;;;;;;4790998;29;20061;-66
2022/06/16 07:51:17;;;;;;;4.20;1.55;;;19.70;97.10;;;;;;4806542;29;20053;-68
2022/06/16 07:53:43;;;;;;;4.18;1.45;;;19.70;96.60;;;;;;4806540;29;20047;-66
2022/06/16 07:56:08;;;;;;;3.08;1.65;;;19.70;98.90;;;;;;4803655;29;20053;-67
2022/06/16 07:58:34;;;;;;;2.75;1.50;;;19.90;98.80;;;;;;4790552;29;20107;-67
2022/06/16 08:01:00;;;;;;;2.53;1.55;;;20.00;97.10;;;;;;4788391;29;20103;-67
2022/06/16 08:03:29;;;;;;;2.28;1.35;;;20.10;94.90;;;;;;4774197;29;20050;-67
2022/06/16 08:05:56;;;;;;;3.03;1.77;;;20.10;94.10;;;;;;4803209;29;20043;-68
2022/06/16 08:08:23;;;;;;;3.40;1.90;;;20.30;94.20;;;;;;4805102;29;20062;-68
2022/06/16 08:10:51;;;;;;;5.22;1.52;;;20.50;96.20;;;;;;4803515;29;20058;-67
2022/06/16 08:13:17;;;;;;;5.18;1.40;;;20.50;93.20;;;;;;4789026;29;20111;-67
2022/06/16 08:15:45;;;;;;;3.70;1.40;;;20.60;91.70;;;;;;4788748;29;20055;-66
2022/06/16 08:18:17;;;;;;;1.83;1.23;;;20.60;91.80;;;;;;4805482;29;20389;-68
2022/06/16 08:20:43;;;;;;;;;;;20.70;89.30;;;;;;4790715;29;20145;-68
2022/06/16 08:23:09;;;;;;;5.10;1.23;;;20.70;91.20;;;;;;4804578;29;20011;-68
2022/06/16 08:25:35;;;;;;;2.20;1.45;;;20.80;88.30;;;;;;4805886;29;20058;-68
2022/06/16 08:28:03;;;;;;;2.38;1.08;;;20.80;83.10;;;;;;4788679;29;20058;-67
2022/06/16 08:30:30;;;;;;;2.08;1.20;;;20.90;81.10;;;;;;4789075;29;20062;-68
2022/06/16 08:32:56;;;;;;;1.92;1.48;;;20.90;76.40;;;;;;4805313;29;20078;-68
2022/06/16 08:35:22;;;;;;;2.97;1.30;;;21.00;74.90;;;;;;4789494;29;20149;-70
2022/06/16 08:37:48;;;;;;;3.45;1.40;;;21.10;74.70;;;;;;4789744;29;20134;-67
2022/06/16 08:40:15;;;;;;;2.95;1.45;;;21.10;73.90;;;;;;4789779;29;20532;-67
2022/06/16 08:42:40;;;;;;;4.57;1.50;;;21.30;72.60;;;;;;4789655;29;20090;-69
2022/06/16 08:45:15;;;;;;;3.03;1.40;;;21.30;72.00;;;;;;4788658;29;20137;-68
2022/06/16 08:48:14;;;;;;;2.67;1.20;;;21.50;70.70;;;;;;4801779;29;20139;-69
2022/06/16 08:50:54;;;;;;;2.65;1.33;;;21.60;67.10;;;;;;4789607;29;20125;-67
2022/06/16 08:53:57;;;;;;;5.97;1.70;;;21.80;72.70;;;;;;4803980;29;20354;-68
2022/06/16 08:56:41;;;;;;;3.50;1.40;;;21.70;70.60;;;;;;4792023;29;20439;-69
2022/06/16 08:59:12;;;;;;;3.63;1.60;;;21.60;68.50;;;;;;4789902;29;20234;-68
2022/06/16 09:02:16;;;;;;;3.90;1.75;;;21.40;70.60;;;;;;4805332;29;20065;-67
2022/06/16 09:04:47;;;;;;;4.10;1.80;;;21.30;70.10;;;;;;4792936;29;20042;-67
2022/06/16 09:07:30;;;;;;;3.55;1.60;;;21.20;73.70;;;;;;4805519;29;20058;-68
2022/06/16 09:10:24;;;;;;;4.05;1.88;;;21.40;76.20;;;;;;4805544;29;20084;-69
2022/06/16 09:13:01;;;;;;;4.80;1.65;;;21.60;72.80;;;;;;4805731;29;20138;-68
2022/06/16 09:15:38;;;;;;;4.38;1.90;;;21.50;73.20;;;;;;4805245;29;20059;-69
2022/06/16 09:18:09;;;;;;;2.70;1.60;;;21.40;72.70;;;;;;4787684;29;20051;-67
2022/06/16 09:20:47;;;;;;;2.72;2.08;;;21.50;73.40;;;;;;4809324;29;20062;-68
2022/06/16 09:23:48;;;;;;;4.78;2.00;;;21.60;71.10;;;;;;4778306;29;20046;-69
2022/06/16 09:26:31;;;;;;;4.13;2.10;;;21.70;72.80;;;;;;4806554;29;20055;-68
2022/06/16 09:29:23;;;;;;;2.88;2.03;;;21.90;69.70;;;;;;4791491;29;20468;-67
2022/06/16 09:31:59;;;;;;;4.88;1.73;;;21.90;68.80;;;;;;4806225;29;20058;-68
2022/06/16 09:34:38;;;;;;;4.32;1.80;;;21.90;70.20;;;;;;4777241;29;20143;-67
2022/06/16 09:37:35;;;;;;;4.22;1.80;;;21.70;70.50;;;;;;4808938;29;20053;-68
2022/06/16 09:40:09;;;;;;;2.72;1.45;;;21.80;70.90;;;;;;4799954;29;20492;-69
2022/06/16 09:42:42;;;;;;;3.75;1.90;;;21.80;70.80;;;;;;4792835;29;20389;-69
2022/06/16 09:45:10;;;;;;;1.60;1.50;;;21.90;71.00;;;;;;4792752;29;20122;-68
2022/06/16 09:48:17;;;;;;;3.83;1.70;;;22.00;73.20;;;;;;4776466;29;20061;-68
2022/06/16 09:51:05;;;;;;;5.13;2.28;;;22.20;75.30;;;;;;4791246;29;20245;-67
2022/06/16 09:53:43;;;;;;;4.70;2.28;;;22.50;70.30;;;;;;4792181;29;20203;-67
2022/06/16 09:56:17;;;;;;;4.63;2.00;;;22.60;66.60;;;;;;4808592;29;20268;-69
2022/06/16 09:59:01;;;;;;;4.22;2.30;;;22.70;66.50;;;;;;4807919;29;20055;-67
2022/06/16 10:01:31;;;;;;;4.32;2.38;;;22.60;66.60;;;;;;4806759;29;20054;-68
2022/06/16 10:04:00;;;;;;;4.68;2.17;;;22.70;66.90;;;;;;4804315;29;20044;-68
2022/06/16 10:06:38;;;;;;;2.88;2.08;;;22.70;66.30;;;;;;4791846;29;20050;-67
2022/06/16 10:09:22;;;;;;;5.65;2.22;;;22.60;65.70;;;;;;4807784;29;20076;-68
2022/06/16 10:11:59;;;;;;;3.30;2.03;;;22.40;67.40;;;;;;4806700;29;20463;-68
2022/06/16 10:14:34;;;;;;;4.57;2.30;;;22.40;67.30;;;;;;4792276;29;20077;-69
2022/06/16 10:17:04;;;;;;;5.15;2.13;;;22.40;68.30;;;;;;4803933;29;20139;-67
2022/06/16 10:19:32;;;;;;;3.08;2.10;;;22.60;67.60;;;;;;4805773;29;20425;-66
2022/06/16 10:22:00;;;;;;;3.70;2.40;;;22.80;66.30;;;;;;4791760;29;20051;-67
2022/06/16 10:24:32;;;;;;;2.80;2.13;;;23.00;66.10;;;;;;4792001;29;20164;-67
2022/06/16 10:26:58;;;;;;;6.85;2.50;;;23.20;65.70;;;;;;4808392;29;20095;-67
2022/06/16 10:29:30;;;;;;;3.85;2.30;;;23.10;64.60;;;;;;4808382;29;20058;-67
2022/06/16 10:31:58;;;;;;;5.68;2.30;;;23.20;64.30;;;;;;4788864;29;20057;-67
2022/06/16 10:34:41;;;;;;;5.30;2.63;;;23.20;64.30;;;;;;4807940;29;20130;-68
2022/06/16 10:37:14;;;;;;;2.88;2.22;;;23.30;63.90;;;;;;4790049;29;20061;-67
2022/06/16 10:40:00;;;;;;;3.17;2.20;;;23.60;63.90;;;;;;4791805;29;20042;-66
2022/06/16 10:42:59;;;;;;;5.10;3.08;;;23.70;62.90;;;;;;4807718;29;20047;-66
2022/06/16 10:45:31;;;;;;;9.65;3.13;;;23.90;62.60;;;;;;4775901;29;20055;-67
2022/06/16 10:48:01;;;;;;;5.45;2.63;;;24.00;62.50;;;;;;4790376;29;20055;-69
2022/06/16 10:50:36;;;;;;;5.05;2.70;;;24.20;62.80;;;;;;4791773;29;20054;-67
2022/06/16 10:53:05;;;;;;;5.40;2.47;;;24.30;62.80;;;;;;4807980;29;20055;-68
2022/06/16 10:55:46;;;;;;;3.70;2.53;;;24.40;61.90;;;;;;4791415;29;20066;-69
2022/06/16 10:58:27;;;;;;;6.10;2.58;;;24.70;60.00;;;;;;4791594;29;20481;-68
2022/06/16 11:01:16;;;;;;;5.68;2.40;;;24.60;60.10;;;;;;4807131;29;20039;-67
2022/06/16 11:03:45;;;;;;;3.83;2.33;;;24.70;59.30;;;;;;4788601;29;20050;-67
2022/06/16 11:06:17;;;;;;;5.07;2.60;;;24.70;59.90;;;;;;4790821;29;20065;-68
2022/06/16 11:08:47;;;;;;;5.32;3.10;;;24.60;59.10;;;;;;4807592;29;20047;-67
2022/06/16 11:11:17;;;;;;;4.20;3.65;;;24.60;59.60;;;;;;4807263;29;20066;-67
2022/06/16 11:13:56;;;;;;;3.70;2.35;;;24.70;59.20;;;;;;4791268;29;20448;-69
2022/06/16 11:16:28;;;;;;;4.90;2.70;;;24.70;59.10;;;;;;4807054;29;20054;-68
2022/06/16 11:18:58;;;;;;;3.58;2.55;;;24.70;58.40;;;;;;4805517;29;20065;-68
2022/06/16 11:21:32;;;;;;;3.38;2.40;;;24.60;58.30;;;;;;4806856;29;20070;-67
2022/06/16 11:24:05;;;;;;;4.55;2.70;;;24.70;58.30;;;;;;4807203;29;20381;-68
2022/06/16 11:26:31;;;;;;;2.97;2.60;;;24.70;57.60;;;;;;4790930;29;20401;-66
2022/06/16 11:29:04;;;;;;;5.25;2.97;;;24.70;57.80;;;;;;4776547;29;20053;-68
2022/06/16 11:32:04;;;;;;;3.92;2.55;;;24.70;58.40;;;;;;4806955;29;20054;-67
2022/06/16 11:34:29;;;;;;;6.25;2.28;;;24.70;58.50;;;;;;4790569;29;20519;-67
2022/06/16 11:37:07;;;;;;;4.50;2.60;;;24.50;57.80;;;;;;4789418;29;20054;-68
2022/06/16 11:40:07;;;;;;;4.75;2.70;;;24.40;57.10;;;;;;4806227;29;20448;-67
2022/06/16 11:42:44;;;;;;;3.55;2.55;;;24.50;57.70;;;;;;4803037;29;20058;-67
2022/06/16 11:45:15;;;;;;;3.78;2.70;;;24.50;57.60;;;;;;4775940;29;20148;-67
2022/06/16 11:48:07;;;;;;;2.67;2.15;;;24.40;57.50;;;;;;4806360;29;20070;-67
2022/06/16 11:50:50;;;;;;;3.90;2.13;;;24.40;57.40;;;;;;4763387;29;20139;-67
2022/06/16 11:53:41;;;;;;;4.03;2.20;;;24.40;58.00;;;;;;4776111;29;20047;-68
2022/06/16 11:56:22;;;;;;;3.80;2.40;;;24.50;57.50;;;;;;4790216;29;20059;-67
2022/06/16 11:59:07;;;;;;;3.90;2.92;;;24.70;57.70;;;;;;4806445;29;20139;-66
2022/06/16 12:01:44;;;;;;;3.85;2.40;;;24.70;55.20;;;;;;4790343;29;20487;-68
2022/06/16 12:04:25;;;;;;;4.82;2.53;;;24.80;56.90;;;;;;4790539;29;20046;-67
2022/06/16 12:07:03;;;;;;;3.42;2.30;;;24.80;56.20;;;;;;4789985;29;20061;-68
2022/06/16 12:09:31;;;;;;;5.43;2.50;;;24.70;56.10;;;;;;4806059;29;20063;-67
2022/06/16 12:12:26;;;;;;;3.30;2.38;;;24.60;56.80;;;;;;4789557;29;20054;-66
2022/06/16 12:15:02;;;;;;;4.28;2.72;;;24.70;57.00;;;;;;4790466;29;20066;-68
2022/06/16 12:18:06;;;;;;;6.13;2.78;;;24.90;56.40;;;;;;4789294;29;20062;-68
2022/06/16 12:20:47;;;;;;;4.43;2.40;;;24.80;55.80;;;;;;4805290;29;20434;-66
2022/06/16 12:23:21;;;;;;;6.13;2.60;;;24.60;56.50;;;;;;4803785;29;20124;-67
2022/06/16 12:25:57;;;;;;;7.47;2.60;;;24.60;56.50;;;;;;4804559;29;20065;-67
2022/06/16 12:28:32;;;;;;;2.97;2.65;;;24.80;56.70;;;;;;4785814;29;20145;-69
2022/06/16 12:31:05;;;;;;;2.75;2.47;;;24.90;56.20;;;;;;4789556;29;20058;-68
2022/06/16 12:34:02;;;;;;;4.95;2.63;;;25.20;56.10;;;;;;4789525;29;20203;-67
2022/06/16 12:36:54;;;;;;;3.67;2.70;;;25.20;55.80;;;;;;4768853;29;20515;-67
2022/06/16 12:39:32;;;;;;;3.28;2.30;;;25.70;55.70;;;;;;4804731;29;20055;-68
2022/06/16 12:42:08;;;;;;;4.40;3.08;;;25.50;55.20;;;;;;4787617;30;20532;-67
2022/06/16 12:44:49;;;;;;;4.75;2.53;;;25.50;55.30;;;;;;4787503;30;20549;-68
2022/06/16 12:47:24;;;;;;;2.70;2.50;;;25.40;55.30;;;;;;4787429;30;20128;-68
2022/06/16 12:50:01;;;;;;;4.13;2.80;;;25.10;55.50;;;;;;4771906;30;20055;-67
2022/06/16 12:52:58;;;;;;;2.90;2.60;;;24.70;55.00;;;;;;4787550;30;20065;-69
2022/06/16 12:55:33;;;;;;;5.82;2.75;;;24.30;55.70;;;;;;4780368;29;20085;-68
2022/06/16 12:58:22;;;;;;;4.43;3.03;;;24.10;56.70;;;;;;4789488;29;20504;-70
2022/06/16 13:00:55;;;;;;;4.78;2.83;;;23.90;56.40;;;;;;4789555;29;20392;-68
2022/06/16 13:03:26;;;;;;;5.32;2.55;;;23.90;56.80;;;;;;4805653;29;20122;-68
2022/06/16 13:05:57;;;;;;;3.08;2.47;;;23.90;57.00;;;;;;4789177;29;20416;-67
2022/06/16 13:08:29;;;;;;;4.53;2.60;;;24.20;57.10;;;;;;4789231;29;20050;-68
2022/06/16 13:10:58;;;;;;;5.93;3.10;;;24.30;57.10;;;;;;4788383;29;20066;-71
2022/06/16 13:13:28;;;;;;;3.95;2.28;;;24.40;57.40;;;;;;4805369;29;20396;-68
2022/06/16 13:15:59;;;;;;;5.53;2.90;;;24.60;57.40;;;;;;4805163;29;20055;-69
2022/06/16 13:18:30;;;;;;;3.83;2.67;;;24.70;56.80;;;;;;4805644;29;20137;-68
2022/06/16 13:21:01;;;;;;;2.73;2.40;;;24.80;56.50;;;;;;4789252;29;20130;-68
2022/06/16 13:23:39;;;;;;;3.77;3.07;;;24.70;56.50;;;;;;4805763;29;20133;-67
2022/06/16 13:26:38;;;;;;;3.60;2.60;;;24.80;56.30;;;;;;4804815;29;20453;-69
2022/06/16 13:29:06;;;;;;;4.07;2.80;;;24.70;56.00;;;;;;4789256;29;20074;-69
2022/06/16 13:31:56;;;;;;;3.75;2.83;;;24.50;56.50;;;;;;4789205;29;20106;-66